createdAt,value
2024-05-09T00:03:35.455Z,4.523489932885906
2024-05-09T00:09:49.563Z,2.2818791946308723
2024-05-09T00:13:09.868Z,3.9328859060402683
2024-05-09T00:16:30.233Z,2.912751677852349
2024-05-09T00:19:50.279Z,5.89261744966443
2024-05-09T00:23:09.935Z,7.74496644295302
2024-05-09T00:30:27.964Z,5.651006711409396
2024-05-09T00:33:53.109Z,3.6912751677852347
2024-05-09T00:38:36.503Z,3.315436241610738
2024-05-09T00:41:56.899Z,5.798657718120805
2024-05-09T00:45:16.956Z,5.483221476510067
2024-05-09T00:50:19.036Z,4.302013422818792
2024-05-09T00:53:43.182Z,3.4966442953020134
2024-05-09T00:57:03.118Z,6.671140939597316
2024-05-09T01:00:31.495Z,4.791946308724833
2024-05-09T01:03:58.578Z,9.053691275167786
2024-05-09T01:08:19.233Z,6.147651006711409
2024-05-09T01:11:44.494Z,5.76510067114094
2024-05-09T01:15:04.834Z,3.8926174496644297
2024-05-09T01:18:24.823Z,4.1879194630872485
2024-05-09T01:25:03.508Z,5.657718120805369
2024-05-09T01:38:53.986Z,8.691275167785236
2024-05-09T01:42:14.164Z,8.087248322147651
2024-05-09T01:45:34.469Z,9.651006711409396
2024-05-09T01:48:54.316Z,6.080536912751678
2024-05-09T01:52:14.434Z,6.590604026845638
2024-05-09T01:55:44.570Z,8.060402684563758
2024-05-09T01:59:04.448Z,12.657718120805368
2024-05-09T02:02:24.739Z,9.59731543624161
2024-05-09T02:05:52.657Z,9.154362416107382
2024-05-09T02:16:25.760Z,13.48993288590604
2024-05-09T02:19:46.012Z,13.40268456375839
2024-05-09T02:23:27.089Z,12.503355704697986
2024-05-09T02:26:48.618Z,13.04026845637584
2024-05-09T02:38:35.701Z,14.281879194630873
2024-05-09T02:50:34.179Z,11.21476510067114
2024-05-09T02:56:57.726Z,13.375838926174497
2024-05-09T03:01:51.182Z,11.523489932885907
2024-05-09T03:05:11.653Z,10.724832214765101
2024-05-09T03:08:31.799Z,14.590604026845638
2024-05-09T03:11:52.946Z,11.496644295302014
2024-05-09T03:15:13.586Z,12.442953020134228
2024-05-09T03:18:35.842Z,15.986577181208053
2024-05-09T03:21:55.719Z,12.570469798657719
2024-05-09T03:25:15.684Z,10.14765100671141
2024-05-09T03:28:35.770Z,13.516778523489933
2024-05-09T03:31:55.607Z,14.697986577181208
2024-05-09T03:36:32.658Z,13.21476510067114
2024-05-09T03:39:55.450Z,15.174496644295303
2024-05-09T03:43:16.039Z,13.335570469798657
2024-05-09T03:46:43.986Z,16.51006711409396
2024-05-09T03:50:40.763Z,15.946308724832214
2024-05-09T03:56:25.691Z,10.731543624161073
2024-05-09T03:59:45.750Z,14.201342281879194
2024-05-09T04:03:07.473Z,14.463087248322148
2024-05-09T04:06:33.914Z,11.590604026845638
2024-05-09T04:09:54.923Z,14.845637583892618
2024-05-09T04:13:15.952Z,17.503355704697988
2024-05-09T04:16:37.009Z,13.275167785234899
2024-05-09T04:19:57.202Z,11.422818791946309
2024-05-09T04:26:23.222Z,15.570469798657719
2024-05-09T04:29:44.440Z,13.476510067114093
2024-05-09T04:33:05.655Z,17.13422818791946
2024-05-09T04:36:26.237Z,13.51006711409396
2024-05-09T04:39:47.562Z,15.651006711409396
2024-05-09T04:43:11.606Z,17.181208053691275
2024-05-09T04:46:31.235Z,12.114093959731544
2024-05-09T04:50:39.299Z,10.738255033557047
2024-05-09T04:54:01.216Z,12.53020134228188
2024-05-09T04:58:40.895Z,11.590604026845638
2024-05-09T05:02:01.876Z,6.067114093959732
2024-05-09T05:08:34.111Z,8.865771812080537
2024-05-09T05:11:55.215Z,7.570469798657718
2024-05-09T05:15:15.808Z,8.630872483221477
2024-05-09T05:18:36.136Z,5.241610738255034
2024-05-09T05:24:14.513Z,9.241610738255034
2024-05-09T05:27:34.656Z,7.899328859060403
2024-05-09T05:32:56.544Z,11.100671140939598
2024-05-09T05:36:17.514Z,8.40268456375839
2024-05-09T05:39:39.097Z,6.604026845637584
2024-05-09T05:42:59.415Z,8.78523489932886
2024-05-09T05:46:19.987Z,10.06711409395973
2024-05-09T05:58:12.994Z,21.389261744966444
2024-05-09T06:10:09.256Z,18.71812080536913
2024-05-09T06:13:36.688Z,18.0
2024-05-09T06:16:58.430Z,18.409395973154364
2024-05-09T06:20:24.063Z,18.268456375838927
2024-05-09T06:23:53.390Z,13.899328859060402
2024-05-09T06:27:14.096Z,12.187919463087248
2024-05-09T06:30:39.505Z,12.583892617449665
2024-05-09T06:34:02.400Z,14.449664429530202
2024-05-09T06:37:23.415Z,11.51006711409396
2024-05-09T06:40:45.028Z,12.154362416107382
2024-05-09T06:46:06.055Z,12.798657718120806
2024-05-09T06:49:26.905Z,12.140939597315436
2024-05-09T06:52:49.271Z,22.08053691275168
2024-05-09T06:56:09.413Z,16.093959731543624
2024-05-09T06:59:30.251Z,17.375838926174495
2024-05-09T07:04:28.310Z,14.275167785234899
2024-05-09T07:11:00.077Z,15.261744966442953
2024-05-09T07:14:22.107Z,17.114093959731544
2024-05-09T07:17:42.726Z,19.261744966442954
2024-05-09T07:21:03.639Z,17.671140939597315
2024-05-09T07:27:09.019Z,18.046979865771814
2024-05-09T07:32:48.325Z,15.798657718120806
2024-05-09T07:36:10.261Z,14.281879194630873
2024-05-09T07:41:17.231Z,15.63758389261745
2024-05-09T07:44:48.594Z,14.87248322147651
2024-05-09T07:53:08.886Z,13.36241610738255
2024-05-09T07:56:58.101Z,13.295302013422818
2024-05-09T08:00:23.717Z,17.7248322147651
2024-05-09T08:06:49.387Z,16.201342281879196
2024-05-09T08:10:12.891Z,14.624161073825503
2024-05-09T08:13:35.493Z,16.57046979865772
2024-05-09T08:19:03.998Z,20.369127516778523
2024-05-09T08:24:48.949Z,18.456375838926174
2024-05-09T08:28:42.015Z,17.033557046979865
2024-05-09T08:32:02.773Z,15.563758389261745
2024-05-09T08:38:49.286Z,15.778523489932885
2024-05-09T08:46:25.886Z,17.536912751677853
2024-05-09T08:53:15.589Z,20.758389261744966
2024-05-09T08:56:36.695Z,15.395973154362416
2024-05-09T08:59:59.132Z,15.657718120805368
2024-05-09T09:05:08.744Z,15.268456375838927
2024-05-09T09:08:30.035Z,12.845637583892618
2024-05-09T09:11:50.401Z,15.664429530201343
2024-05-09T09:15:10.447Z,17.100671140939596
2024-05-09T09:18:31.181Z,10.63758389261745
2024-05-09T09:27:14.739Z,10.114093959731544
2024-05-09T09:39:21.609Z,9.06711409395973
2024-05-09T09:42:42.323Z,6.597315436241611
2024-05-09T09:48:58.449Z,6.375838926174497
2024-05-09T09:56:21.155Z,9.758389261744966
2024-05-09T09:59:42.165Z,8.268456375838927
2024-05-09T10:03:02.559Z,7.6375838926174495
2024-05-09T10:06:23.186Z,8.073825503355705
2024-05-09T10:09:44.175Z,8.74496644295302
2024-05-09T10:13:04.420Z,10.093959731543624
2024-05-09T10:16:24.158Z,9.40268456375839
2024-05-09T10:23:57.015Z,7.557046979865772
2024-05-09T10:27:17.392Z,5.865771812080537
2024-05-09T10:30:39.415Z,5.469798657718121
2024-05-09T10:34:01.152Z,6.805369127516778
2024-05-09T10:37:22.233Z,4.624161073825503
2024-05-09T10:40:42.717Z,6.046979865771812
2024-05-09T10:44:02.627Z,6.818791946308725
2024-05-09T10:47:22.516Z,4.563758389261745
2024-05-09T10:50:42.349Z,4.946308724832215
2024-05-09T10:54:02.315Z,6.302013422818792
2024-05-09T10:57:22.807Z,5.959731543624161
2024-05-09T11:02:23.730Z,5.993288590604027
2024-05-09T11:05:45.280Z,5.147651006711409
2024-05-09T11:09:05.595Z,5.476510067114094
2024-05-09T11:12:26.395Z,6.577181208053691
2024-05-09T11:15:47.732Z,4.912751677852349
2024-05-09T11:19:09.021Z,8.228187919463087
2024-05-09T11:24:47.469Z,6.510067114093959
2024-05-09T11:28:08.030Z,7.8120805369127515
2024-05-09T11:31:29.036Z,5.523489932885906
2024-05-09T11:39:16.624Z,10.798657718120806
2024-05-09T11:42:37.752Z,7.657718120805369
2024-05-09T11:48:00.965Z,8.275167785234899
2024-05-09T11:51:21.165Z,6.624161073825503
2024-05-09T11:54:41.268Z,3.697986577181208
2024-05-09T11:58:01.242Z,7.6375838926174495
2024-05-09T12:01:25.067Z,6.563758389261745
2024-05-09T12:04:47.166Z,6.0
2024-05-09T12:08:07.577Z,9.771812080536913
2024-05-09T12:11:27.572Z,7.5369127516778525
2024-05-09T12:14:48.067Z,4.073825503355705
2024-05-09T12:23:15.956Z,7.080536912751678
2024-05-09T12:26:37.599Z,6.241610738255034
2024-05-09T12:29:57.734Z,5.644295302013423
2024-05-09T12:33:18.276Z,2.476510067114094
2024-05-09T12:36:39.566Z,5.610738255033557
2024-05-09T12:40:00.647Z,2.9194630872483223
2024-05-09T12:45:16.535Z,3.335570469798658
2024-05-09T12:48:37.192Z,4.221476510067114
2024-05-09T12:56:14.642Z,3.1946308724832213
2024-05-09T12:59:35.902Z,3.8993288590604025
2024-05-09T13:02:57.337Z,3.738255033557047
2024-05-09T13:06:17.382Z,2.402684563758389
2024-05-09T13:09:38.990Z,5.557046979865772
2024-05-09T13:13:02.052Z,3.120805369127517
2024-05-09T13:16:22.683Z,2.0268456375838926
2024-05-09T13:19:44.387Z,3.0268456375838926
2024-05-09T13:23:05.562Z,2.2885906040268456
2024-05-09T13:26:31.960Z,3.610738255033557
2024-05-09T13:31:23.146Z,3.033557046979866
2024-05-09T13:34:47.776Z,4.302013422818792
2024-05-09T13:38:10.405Z,4.429530201342282
2024-05-09T13:45:51.067Z,2.8322147651006713
2024-05-09T13:49:12.934Z,3.1006711409395975
2024-05-09T13:52:42.134Z,3.3087248322147653
2024-05-09T13:56:44.726Z,1.651006711409396
2024-05-09T14:00:37.932Z,2.953020134228188
2024-05-09T14:07:11.054Z,1.738255033557047
2024-05-09T14:10:36.273Z,2.1476510067114094
2024-05-09T14:13:58.995Z,1.6375838926174497
2024-05-09T14:17:20.366Z,3.228187919463087
2024-05-09T14:23:54.553Z,1.9060402684563758
2024-05-09T14:29:59.609Z,5.073825503355705
2024-05-09T14:33:20.747Z,2.838926174496644
2024-05-09T14:36:42.037Z,1.4966442953020134
2024-05-09T14:40:02.952Z,3.214765100671141
2024-05-09T14:43:24.648Z,4.181208053691275
2024-05-09T14:46:46.638Z,3.51006711409396
2024-05-09T14:50:06.999Z,3.348993288590604
2024-05-09T14:53:29.252Z,1.6979865771812082
2024-05-09T14:56:50.041Z,1.8187919463087248
2024-05-09T15:02:46.627Z,2.0805369127516777
2024-05-09T15:06:11.357Z,2.8456375838926173
2024-05-09T15:17:53.564Z,2.0
2024-05-09T15:21:14.546Z,3.033557046979866
2024-05-09T15:24:38.897Z,3.6241610738255035
2024-05-09T15:28:05.271Z,2.8456375838926173
2024-05-09T15:34:43.688Z,1.8053691275167785
2024-05-09T15:38:46.580Z,2.2818791946308723
2024-05-09T15:43:05.700Z,2.791946308724832
2024-05-09T15:46:27.676Z,1.9060402684563758
2024-05-09T15:49:49.775Z,2.912751677852349
2024-05-09T15:54:54.453Z,3.5369127516778525
2024-05-09T15:58:16.283Z,1.738255033557047
2024-05-09T16:01:37.855Z,1.9328859060402686
2024-05-09T16:08:00.090Z,1.3825503355704698
2024-05-09T16:11:21.211Z,3.1006711409395975
2024-05-09T16:14:42.303Z,1.2080536912751678
2024-05-09T16:18:31.910Z,2.8993288590604025
2024-05-09T16:26:55.849Z,1.8657718120805369
2024-05-09T16:30:31.463Z,1.7046979865771812
2024-05-09T16:34:00.745Z,3.046979865771812
2024-05-09T16:37:21.949Z,1.436241610738255
2024-05-09T16:40:43.431Z,2.8926174496644297
2024-05-09T16:46:33.335Z,2.8322147651006713
2024-05-09T16:50:05.144Z,1.6644295302013423
2024-05-09T16:53:25.843Z,2.261744966442953
2024-05-09T16:56:48.105Z,3.161073825503356
2024-05-09T17:00:18.101Z,4.510067114093959
2024-05-09T17:06:35.491Z,5.442953020134228
2024-05-09T17:10:26.697Z,5.0
2024-05-09T17:13:53.403Z,2.161073825503356
2024-05-09T17:17:14.218Z,4.3355704697986575
2024-05-09T17:20:54.572Z,4.315436241610739
2024-05-09T17:24:15.693Z,4.23489932885906
2024-05-09T17:30:46.460Z,4.563758389261745
2024-05-09T17:34:32.856Z,2.3624161073825505
2024-05-09T17:37:55.401Z,4.201342281879195
2024-05-09T17:41:15.779Z,4.845637583892618
2024-05-09T17:44:37.364Z,5.201342281879195
2024-05-09T17:48:47.006Z,3.6040268456375837
2024-05-09T17:52:06.898Z,3.7986577181208054
2024-05-09T17:55:27.015Z,5.959731543624161
2024-05-09T17:58:47.982Z,8.751677852348994
2024-05-09T18:02:09.499Z,6.154362416107382
2024-05-09T18:11:01.978Z,4.080536912751678
2024-05-09T18:14:23.616Z,4.248322147651007
2024-05-09T18:17:45.095Z,2.2684563758389262
2024-05-09T18:21:05.457Z,3.442953020134228
2024-05-09T18:24:26.582Z,3.6375838926174495
2024-05-09T18:27:48.563Z,4.8389261744966445
2024-05-09T18:31:10.237Z,3.9731543624161074
2024-05-09T18:34:31.391Z,5.221476510067114
2024-05-09T18:37:53.775Z,6.080536912751678
2024-05-09T18:41:16.196Z,4.76510067114094
2024-05-09T18:45:59.716Z,5.328859060402684
2024-05-09T18:49:24.342Z,5.939597315436242
2024-05-09T18:52:45.838Z,4.724832214765101
2024-05-09T18:56:57.570Z,5.100671140939597
2024-05-09T19:00:31.014Z,16.738255033557046
2024-05-09T19:03:56.091Z,11.442953020134228
2024-05-09T19:07:25.189Z,8.053691275167786
2024-05-09T19:10:46.795Z,4.087248322147651
2024-05-09T19:14:08.151Z,3.1946308724832213
2024-05-09T19:17:29.636Z,5.248322147651007
2024-05-09T19:22:17.097Z,6.597315436241611
2024-05-09T19:25:37.821Z,8.724832214765101
2024-05-09T19:28:57.877Z,5.939597315436242
2024-05-09T19:32:18.942Z,9.604026845637584
2024-05-09T19:37:30.053Z,9.187919463087248
2024-05-09T19:40:51.035Z,10.375838926174497
2024-05-09T19:44:11.498Z,9.516778523489933
2024-05-09T19:47:38.964Z,10.516778523489933
2024-05-09T19:53:34.337Z,13.026845637583893
2024-05-09T19:56:54.655Z,7.496644295302014
2024-05-09T20:00:21.857Z,11.979865771812081
2024-05-09T20:03:47.406Z,7.577181208053691
2024-05-09T20:08:28.591Z,10.114093959731544
2024-05-09T20:11:49.424Z,6.993288590604027
2024-05-09T20:16:30.844Z,9.442953020134228
2024-05-09T20:19:51.458Z,6.7114093959731544
2024-05-09T20:23:11.723Z,9.187919463087248
2024-05-09T20:26:31.262Z,9.456375838926174
2024-05-09T20:29:56.584Z,7.718120805369128
2024-05-09T20:33:16.257Z,7.8389261744966445
2024-05-09T20:36:36.564Z,10.38255033557047
2024-05-09T20:39:57.311Z,9.087248322147651
2024-05-09T20:43:18.405Z,8.315436241610739
2024-05-09T20:46:48.133Z,7.167785234899329
2024-05-09T20:50:34.961Z,7.704697986577181
2024-05-09T20:54:05.042Z,10.04026845637584
2024-05-09T20:59:08.530Z,9.335570469798657
2024-05-09T21:02:33.006Z,7.442953020134228
2024-05-09T21:09:05.772Z,6.691275167785235
2024-05-09T21:12:35.484Z,7.738255033557047
2024-05-09T21:16:11.314Z,7.697986577181208
2024-05-09T21:22:37.397Z,6.785234899328859
2024-05-09T21:26:13.705Z,8.228187919463087
2024-05-09T21:29:37.751Z,8.664429530201343
2024-05-09T21:32:57.751Z,8.14765100671141
2024-05-09T21:36:17.762Z,4.624161073825503
2024-05-09T21:59:14.076Z,5.429530201342282
2024-05-09T22:02:34.448Z,7.3624161073825505
2024-05-09T22:05:54.936Z,8.281879194630873
2024-05-09T22:09:14.587Z,6.926174496644295
2024-05-09T22:12:36.224Z,8.04026845637584
2024-05-09T22:15:56.591Z,8.134228187919463
2024-05-09T22:19:16.638Z,6.006711409395973
2024-05-09T22:22:36.575Z,5.87248322147651
2024-05-09T22:25:56.929Z,4.489932885906041
2024-05-09T22:29:17.220Z,6.791946308724833
2024-05-09T22:34:19.967Z,6.510067114093959
2024-05-09T22:37:41.346Z,8.080536912751677
2024-05-09T22:45:31.515Z,6.208053691275167
2024-05-09T22:48:51.487Z,8.436241610738255
2024-05-09T23:10:16.573Z,11.355704697986576
2024-05-09T23:13:40.999Z,9.53020134228188
2024-05-09T23:17:00.709Z,7.348993288590604
2024-05-09T23:23:42.190Z,9.416107382550335
2024-05-09T23:27:02.148Z,8.436241610738255
2024-05-09T23:30:36.431Z,9.724832214765101
2024-05-09T23:33:59.507Z,8.879194630872483
2024-05-09T23:37:20.064Z,8.429530201342281
2024-05-09T23:44:26.364Z,8.825503355704697
2024-05-09T23:55:28.029Z,10.020134228187919
2024-05-09T23:58:48.890Z,12.711409395973154
